Attica, New York
Current Conditions -  °F | °C
As of 4:54 AM on Wednesday 26 Nov 2014 (Local Time) from KBUF Reporting Station
Broken Clouds Broken Clouds  
Wind Chill: 31°   Ceiling: 15000
Heat Index: 31°   Visibility: 10mi
Dew Point: 23°   Wind: 3mph
Humidity: 72%   Direction: 110°ESE
Pressure: 30.19"   Gusts: NA
Location:  42.86°N, 78.28°W
Report Text: KBUF 260954Z 11003KT 10SM FEW032 BKN150 M01/M05 A3019 RMK AO2 SLP231 T10061050
Loading
Personal Weather Stations






























Interactive Weather Map New forecast layout! Learn more

10-Day Weather Forecast

Advertisements
Track Severe Weather on mobile